sensor_id;sensor_type;location;lat;lon;timestamp;pressure;altitude;pressure_sealevel;temperature;humidity
35655;BME280;21773;50.010;19.972;2023-05-20T00:01:50;99672.69;;;16.09;68.94
35655;BME280;21773;50.010;19.972;2023-05-20T00:04:53;99658.13;;;16.15;68.81
35655;BME280;21773;50.010;19.972;2023-05-20T00:07:58;99665.00;;;16.17;68.66
35655;BME280;21773;50.010;19.972;2023-05-20T00:11:02;99669.47;;;16.23;68.27
35655;BME280;21773;50.010;19.972;2023-05-20T00:14:05;99664.50;;;16.20;68.15
35655;BME280;21773;50.010;19.972;2023-05-20T00:17:08;99654.91;;;16.18;67.97
35655;BME280;21773;50.010;19.972;2023-05-20T00:20:12;99654.84;;;16.01;68.46
35655;BME280;21773;50.010;19.972;2023-05-20T00:23:16;99665.84;;;16.06;68.62
35655;BME280;21773;50.010;19.972;2023-05-20T00:26:20;99668.66;;;16.11;68.77
35655;BME280;21773;50.010;19.972;2023-05-20T00:29:28;99661.19;;;16.18;68.47
35655;BME280;21773;50.010;19.972;2023-05-20T00:32:32;99663.44;;;16.21;68.20
35655;BME280;21773;50.010;19.972;2023-05-20T00:35:35;99661.66;;;16.27;68.19
35655;BME280;21773;50.010;19.972;2023-05-20T00:38:40;99651.13;;;16.30;68.30
35655;BME280;21773;50.010;19.972;2023-05-20T00:41:43;99655.75;;;16.30;68.39
35655;BME280;21773;50.010;19.972;2023-05-20T00:44:48;99650.06;;;16.31;68.42
35655;BME280;21773;50.010;19.972;2023-05-20T00:47:51;99647.34;;;16.31;68.20
35655;BME280;21773;50.010;19.972;2023-05-20T00:50:58;99645.44;;;16.32;68.43
35655;BME280;21773;50.010;19.972;2023-05-20T00:54:04;99640.34;;;16.35;68.33
35655;BME280;21773;50.010;19.972;2023-05-20T00:57:08;99638.09;;;16.32;68.59
35655;BME280;21773;50.010;19.972;2023-05-20T01:00:13;99641.06;;;16.31;68.83
35655;BME280;21773;50.010;19.972;2023-05-20T01:03:16;99641.06;;;16.31;68.65
35655;BME280;21773;50.010;19.972;2023-05-20T01:06:20;99645.34;;;16.27;68.82
35655;BME280;21773;50.010;19.972;2023-05-20T01:09:25;99634.47;;;16.27;69.09
35655;BME280;21773;50.010;19.972;2023-05-20T01:12:33;99639.63;;;16.28;69.12
35655;BME280;21773;50.010;19.972;2023-05-20T01:15:39;99628.53;;;16.18;69.34
35655;BME280;21773;50.010;19.972;2023-05-20T01:18:43;99628.09;;;16.21;69.51
35655;BME280;21773;50.010;19.972;2023-05-20T01:21:52;99625.81;;;16.18;69.94
35655;BME280;21773;50.010;19.972;2023-05-20T01:24:57;99635.31;;;16.16;70.12
35655;BME280;21773;50.010;19.972;2023-05-20T01:28:00;99606.94;;;16.00;70.30
35655;BME280;21773;50.010;19.972;2023-05-20T01:31:09;99625.81;;;16.18;70.11
35655;BME280;21773;50.010;19.972;2023-05-20T01:34:14;99620.03;;;16.15;70.33
35655;BME280;21773;50.010;19.972;2023-05-20T01:37:18;99621.00;;;16.09;70.71
35655;BME280;21773;50.010;19.972;2023-05-20T01:40:23;99619.00;;;16.04;71.29
35655;BME280;21773;50.010;19.972;2023-05-20T01:43:29;99614.63;;;16.03;71.35
35655;BME280;21773;50.010;19.972;2023-05-20T01:46:33;99618.53;;;16.07;71.15
35655;BME280;21773;50.010;19.972;2023-05-20T01:49:36;99616.53;;;16.02;71.46
35655;BME280;21773;50.010;19.972;2023-05-20T01:52:40;99621.47;;;16.06;71.57
35655;BME280;21773;50.010;19.972;2023-05-20T01:55:44;99615.09;;;16.00;71.73
35655;BME280;21773;50.010;19.972;2023-05-20T01:58:48;99616.66;;;15.96;71.88
35655;BME280;21773;50.010;19.972;2023-05-20T02:01:51;99616.75;;;16.01;71.91
35655;BME280;21773;50.010;19.972;2023-05-20T02:04:54;99613.44;;;15.99;71.91
35655;BME280;21773;50.010;19.972;2023-05-20T02:07:58;99628.09;;;15.98;72.02
35655;BME280;21773;50.010;19.972;2023-05-20T02:11:03;99616.78;;;15.89;72.40
35655;BME280;21773;50.010;19.972;2023-05-20T02:14:06;99623.88;;;15.90;72.29
35655;BME280;21773;50.010;19.972;2023-05-20T02:17:10;99628.47;;;15.90;72.71
35655;BME280;21773;50.010;19.972;2023-05-20T02:20:13;99628.59;;;15.95;72.47
35655;BME280;21773;50.010;19.972;2023-05-20T02:23:17;99623.16;;;15.95;72.59
35655;BME280;21773;50.010;19.972;2023-05-20T02:26:21;99626.09;;;15.93;72.96
35655;BME280;21773;50.010;19.972;2023-05-20T02:29:26;99630.47;;;15.94;72.94
35655;BME280;21773;50.010;19.972;2023-05-20T02:32:29;99620.66;;;15.93;72.97
35655;BME280;21773;50.010;19.972;2023-05-20T02:35:34;99621.88;;;15.97;72.89
35655;BME280;21773;50.010;19.972;2023-05-20T02:38:37;99625.75;;;16.01;72.99
35655;BME280;21773;50.010;19.972;2023-05-20T02:41:46;99633.31;;;15.99;73.20
35655;BME280;21773;50.010;19.972;2023-05-20T02:44:49;99625.25;;;16.04;72.79
35655;BME280;21773;50.010;19.972;2023-05-20T02:47:54;99631.88;;;16.09;72.86
35655;BME280;21773;50.010;19.972;2023-05-20T02:50:58;99624.81;;;16.08;72.84
35655;BME280;21773;50.010;19.972;2023-05-20T02:54:01;99625.16;;;16.11;72.77
35655;BME280;21773;50.010;19.972;2023-05-20T02:57:06;99632.47;;;16.11;72.67
35655;BME280;21773;50.010;19.972;2023-05-20T03:00:10;99632.69;;;16.09;72.63
35655;BME280;21773;50.010;19.972;2023-05-20T03:03:14;99637.91;;;16.11;72.89
35655;BME280;21773;50.010;19.972;2023-05-20T03:06:18;99633.88;;;16.13;72.85
35655;BME280;21773;50.010;19.972;2023-05-20T03:09:21;99631.16;;;16.13;72.76
35655;BME280;21773;50.010;19.972;2023-05-20T03:12:26;99640.63;;;16.11;72.81
35655;BME280;21773;50.010;19.972;2023-05-20T03:15:29;99632.34;;;16.17;72.69
35655;BME280;21773;50.010;19.972;2023-05-20T03:18:33;99634.81;;;16.19;72.72
35655;BME280;21773;50.010;19.972;2023-05-20T03:21:36;99648.78;;;16.22;72.73
35655;BME280;21773;50.010;19.972;2023-05-20T03:24:39;99640.84;;;16.21;72.61
35655;BME280;21773;50.010;19.972;2023-05-20T03:27:48;99643.34;;;16.22;72.24
35655;BME280;21773;50.010;19.972;2023-05-20T03:30:52;99648.28;;;16.25;72.21
35655;BME280;21773;50.010;19.972;2023-05-20T03:33:55;99642.03;;;16.25;72.38
35655;BME280;21773;50.010;19.972;2023-05-20T03:36:59;99641.78;;;16.26;72.36
35655;BME280;21773;50.010;19.972;2023-05-20T03:40:04;99638.47;;;16.24;72.31
35655;BME280;21773;50.010;19.972;2023-05-20T03:43:10;99639.53;;;16.23;72.60
35655;BME280;21773;50.010;19.972;2023-05-20T03:46:13;99643.41;;;16.27;72.40
35655;BME280;21773;50.010;19.972;2023-05-20T03:49:17;99641.53;;;16.28;72.12
35655;BME280;21773;50.010;19.972;2023-05-20T03:52:21;99624.41;;;16.16;72.28
35655;BME280;21773;50.010;19.972;2023-05-20T03:55:24;99644.41;;;16.21;72.49
35655;BME280;21773;50.010;19.972;2023-05-20T03:58:30;99642.16;;;16.18;72.81
35655;BME280;21773;50.010;19.972;2023-05-20T04:01:33;99638.47;;;16.24;72.66
35655;BME280;21773;50.010;19.972;2023-05-20T04:04:38;99638.69;;;16.23;72.79
35655;BME280;21773;50.010;19.972;2023-05-20T04:07:44;99633.13;;;16.29;72.53
35655;BME280;21773;50.010;19.972;2023-05-20T04:10:48;99634.31;;;16.33;72.63
35655;BME280;21773;50.010;19.972;2023-05-20T04:13:53;99634.91;;;16.35;72.45
35655;BME280;21773;50.010;19.972;2023-05-20T04:16:57;99635.00;;;16.40;72.45
35655;BME280;21773;50.010;19.972;2023-05-20T04:20:01;99631.34;;;16.35;72.51
35655;BME280;21773;50.010;19.972;2023-05-20T04:23:07;99640.91;;;16.37;72.33
35655;BME280;21773;50.010;19.972;2023-05-20T04:26:11;99639.63;;;16.40;72.62
35655;BME280;21773;50.010;19.972;2023-05-20T04:29:16;99640.44;;;16.40;72.70
35655;BME280;21773;50.010;19.972;2023-05-20T04:32:20;99635.97;;;16.34;72.78
35655;BME280;21773;50.010;19.972;2023-05-20T04:35:24;99612.59;;;16.22;72.64
35655;BME280;21773;50.010;19.972;2023-05-20T04:38:31;99634.47;;;16.27;73.28
35655;BME280;21773;50.010;19.972;2023-05-20T04:41:35;99639.41;;;16.30;72.88
35655;BME280;21773;50.010;19.972;2023-05-20T04:44:40;99638.34;;;16.31;72.92
35655;BME280;21773;50.010;19.972;2023-05-20T04:47:43;99635.72;;;16.36;72.93
35655;BME280;21773;50.010;19.972;2023-05-20T04:50:48;99636.78;;;16.35;72.94
35655;BME280;21773;50.010;19.972;2023-05-20T04:53:53;99647.41;;;16.48;73.08
35655;BME280;21773;50.010;19.972;2023-05-20T04:56:56;99644.09;;;16.46;72.95
35655;BME280;21773;50.010;19.972;2023-05-20T05:00:01;99654.38;;;16.56;72.60
35655;BME280;21773;50.010;19.972;2023-05-20T05:03:08;99648.09;;;16.55;72.97
35655;BME280;21773;50.010;19.972;2023-05-20T05:06:13;99655.94;;;16.52;73.06
35655;BME280;21773;50.010;19.972;2023-05-20T05:09:16;99648.22;;;16.60;72.87
35655;BME280;21773;50.010;19.972;2023-05-20T05:12:20;99661.00;;;16.60;73.02
35655;BME280;21773;50.010;19.972;2023-05-20T05:15:25;99660.28;;;16.64;73.16
35655;BME280;21773;50.010;19.972;2023-05-20T05:18:29;99653.06;;;16.70;73.14
35655;BME280;21773;50.010;19.972;2023-05-20T05:21:33;99654.53;;;16.77;73.22
35655;BME280;21773;50.010;19.972;2023-05-20T05:24:37;99652.75;;;16.83;73.33
35655;BME280;21773;50.010;19.972;2023-05-20T05:27:41;99656.06;;;16.85;73.26
35655;BME280;21773;50.010;19.972;2023-05-20T05:30:46;99647.00;;;16.96;73.07
35655;BME280;21773;50.010;19.972;2023-05-20T05:33:50;99648.75;;;17.02;73.11
35655;BME280;21773;50.010;19.972;2023-05-20T05:36:54;99648.84;;;17.07;73.21
35655;BME280;21773;50.010;19.972;2023-05-20T05:39:57;99652.81;;;17.16;72.99
35655;BME280;21773;50.010;19.972;2023-05-20T05:43:00;99654.78;;;17.21;72.67
35655;BME280;21773;50.010;19.972;2023-05-20T05:46:05;99654.56;;;17.22;72.34
35655;BME280;21773;50.010;19.972;2023-05-20T05:49:11;99656.78;;;17.25;72.42
35655;BME280;21773;50.010;19.972;2023-05-20T05:52:15;99654.66;;;17.27;72.67
35655;BME280;21773;50.010;19.972;2023-05-20T05:55:18;99654.22;;;17.36;72.40
35655;BME280;21773;50.010;19.972;2023-05-20T05:58:21;99650.75;;;17.40;72.58
35655;BME280;21773;50.010;19.972;2023-05-20T06:01:26;99652.84;;;17.33;72.65
35655;BME280;21773;50.010;19.972;2023-05-20T06:04:29;99643.97;;;17.26;73.14
35655;BME280;21773;50.010;19.972;2023-05-20T06:07:33;99653.50;;;17.23;73.41
35655;BME280;21773;50.010;19.972;2023-05-20T06:10:36;99651.09;;;17.27;73.46
35655;BME280;21773;50.010;19.972;2023-05-20T06:13:39;99650.34;;;17.31;73.49
35655;BME280;21773;50.010;19.972;2023-05-20T06:16:44;99663.16;;;17.31;73.96
35655;BME280;21773;50.010;19.972;2023-05-20T06:19:48;99656.53;;;17.27;74.01
35655;BME280;21773;50.010;19.972;2023-05-20T06:22:51;99648.94;;;17.12;74.79
35655;BME280;21773;50.010;19.972;2023-05-20T06:25:57;99640.09;;;17.22;75.18
35655;BME280;21773;50.010;19.972;2023-05-20T06:29:02;99645.41;;;17.28;74.98
35655;BME280;21773;50.010;19.972;2023-05-20T06:32:07;99645.81;;;17.37;75.23
35655;BME280;21773;50.010;19.972;2023-05-20T06:35:11;99647.28;;;17.45;75.13
35655;BME280;21773;50.010;19.972;2023-05-20T06:38:15;99652.09;;;17.54;74.56
35655;BME280;21773;50.010;19.972;2023-05-20T06:41:19;99652.84;;;17.66;74.61
35655;BME280;21773;50.010;19.972;2023-05-20T06:44:24;99652.78;;;17.78;74.52
35655;BME280;21773;50.010;19.972;2023-05-20T06:47:52;99649.94;;;17.90;73.76
35655;BME280;21773;50.010;19.972;2023-05-20T06:50:56;99643.66;;;17.89;73.71
35655;BME280;21773;50.010;19.972;2023-05-20T06:54:00;99648.34;;;17.94;74.04
35655;BME280;21773;50.010;19.972;2023-05-20T06:57:05;99634.47;;;17.95;73.99
35655;BME280;21773;50.010;19.972;2023-05-20T07:00:11;99636.72;;;18.20;72.52
35655;BME280;21773;50.010;19.972;2023-05-20T07:03:17;99631.38;;;18.30;72.32
35655;BME280;21773;50.010;19.972;2023-05-20T07:06:22;99634.28;;;18.24;71.97
35655;BME280;21773;50.010;19.972;2023-05-20T07:09:25;99628.53;;;18.42;72.43
35655;BME280;21773;50.010;19.972;2023-05-20T07:12:29;99613.44;;;18.56;71.99
35655;BME280;21773;50.010;19.972;2023-05-20T07:15:32;99603.66;;;18.60;72.14
35655;BME280;21773;50.010;19.972;2023-05-20T07:18:39;99610.94;;;18.76;70.54
35655;BME280;21773;50.010;19.972;2023-05-20T07:21:43;99607.53;;;18.91;70.40
35655;BME280;21773;50.010;19.972;2023-05-20T07:25:19;99609.69;;;18.89;70.03
35655;BME280;21773;50.010;19.972;2023-05-20T07:28:22;99619.06;;;18.98;69.79
35655;BME280;21773;50.010;19.972;2023-05-20T07:31:26;99613.34;;;18.99;69.36
35655;BME280;21773;50.010;19.972;2023-05-20T07:34:31;99610.88;;;18.98;69.56
35655;BME280;21773;50.010;19.972;2023-05-20T07:37:34;99604.75;;;19.18;69.55
35655;BME280;21773;50.010;19.972;2023-05-20T07:40:38;99607.44;;;19.13;69.07
35655;BME280;21773;50.010;19.972;2023-05-20T07:43:44;99605.00;;;19.16;68.89
35655;BME280;21773;50.010;19.972;2023-05-20T07:46:48;99608.19;;;19.35;68.44
35655;BME280;21773;50.010;19.972;2023-05-20T07:49:55;99613.78;;;19.50;67.89
35655;BME280;21773;50.010;19.972;2023-05-20T07:52:58;99614.41;;;19.57;67.46
35655;BME280;21773;50.010;19.972;2023-05-20T07:56:04;99609.63;;;19.42;66.99
35655;BME280;21773;50.010;19.972;2023-05-20T07:59:07;99617.78;;;19.37;66.86
35655;BME280;21773;50.010;19.972;2023-05-20T08:02:16;99604.47;;;19.46;67.55
35655;BME280;21773;50.010;19.972;2023-05-20T08:05:22;99613.31;;;19.58;67.54
35655;BME280;21773;50.010;19.972;2023-05-20T08:08:25;99601.78;;;19.51;67.09
35655;BME280;21773;50.010;19.972;2023-05-20T08:11:37;99602.09;;;19.55;67.12
35655;BME280;21773;50.010;19.972;2023-05-20T08:14:40;99595.06;;;19.37;67.05
35655;BME280;21773;50.010;19.972;2023-05-20T08:17:44;99594.84;;;19.43;67.18
35655;BME280;21773;50.010;19.972;2023-05-20T08:20:49;99594.25;;;19.68;66.66
35655;BME280;21773;50.010;19.972;2023-05-20T08:23:53;99601.44;;;19.84;66.58
35655;BME280;21773;50.010;19.972;2023-05-20T08:26:57;99592.19;;;19.90;66.21
35655;BME280;21773;50.010;19.972;2023-05-20T08:30:01;99586.72;;;19.96;65.18
35655;BME280;21773;50.010;19.972;2023-05-20T08:33:05;99585.91;;;19.95;64.84
35655;BME280;21773;50.010;19.972;2023-05-20T08:36:10;99586.81;;;20.11;65.50
35655;BME280;21773;50.010;19.972;2023-05-20T08:39:13;99578.66;;;20.26;65.74
35655;BME280;21773;50.010;19.972;2023-05-20T08:42:20;99586.56;;;20.17;64.74
35655;BME280;21773;50.010;19.972;2023-05-20T08:45:26;99574.22;;;20.15;64.33
35655;BME280;21773;50.010;19.972;2023-05-20T08:48:35;99591.47;;;20.15;64.39
35655;BME280;21773;50.010;19.972;2023-05-20T08:51:40;99595.38;;;20.29;64.42
35655;BME280;21773;50.010;19.972;2023-05-20T08:54:47;99586.31;;;20.29;64.46
35655;BME280;21773;50.010;19.972;2023-05-20T08:57:51;99586.97;;;20.41;64.54
35655;BME280;21773;50.010;19.972;2023-05-20T09:00:55;99584.47;;;20.35;64.42
35655;BME280;21773;50.010;19.972;2023-05-20T09:03:59;99582.91;;;19.97;64.01
35655;BME280;21773;50.010;19.972;2023-05-20T09:07:05;99574.06;;;19.84;65.16
35655;BME280;21773;50.010;19.972;2023-05-20T09:10:09;99581.72;;;19.77;66.22
35655;BME280;21773;50.010;19.972;2023-05-20T09:13:12;99586.31;;;19.72;66.70
35655;BME280;21773;50.010;19.972;2023-05-20T09:16:15;99588.91;;;19.88;66.54
35655;BME280;21773;50.010;19.972;2023-05-20T09:19:19;99578.91;;;19.67;66.78
35655;BME280;21773;50.010;19.972;2023-05-20T09:22:27;99576.81;;;19.84;66.16
35655;BME280;21773;50.010;19.972;2023-05-20T09:25:31;99576.75;;;19.74;66.27
35655;BME280;21773;50.010;19.972;2023-05-20T09:28:35;99588.09;;;19.51;66.53
35655;BME280;21773;50.010;19.972;2023-05-20T09:31:40;99585.16;;;19.58;66.98
35655;BME280;21773;50.010;19.972;2023-05-20T09:34:45;99577.16;;;19.51;68.17
35655;BME280;21773;50.010;19.972;2023-05-20T09:37:53;99579.03;;;19.87;67.59
35655;BME280;21773;50.010;19.972;2023-05-20T09:40:57;99576.97;;;20.15;67.18
35655;BME280;21773;50.010;19.972;2023-05-20T09:44:04;99577.22;;;20.08;65.59
35655;BME280;21773;50.010;19.972;2023-05-20T09:47:07;99573.41;;;20.14;66.79
35655;BME280;21773;50.010;19.972;2023-05-20T09:50:11;99571.25;;;20.21;66.04
35655;BME280;21773;50.010;19.972;2023-05-20T09:53:17;99570.25;;;20.33;65.31
35655;BME280;21773;50.010;19.972;2023-05-20T09:56:23;99567.22;;;20.34;64.87
35655;BME280;21773;50.010;19.972;2023-05-20T09:59:29;99559.06;;;20.59;64.79
35655;BME280;21773;50.010;19.972;2023-05-20T10:02:34;99563.16;;;20.42;65.67
35655;BME280;21773;50.010;19.972;2023-05-20T10:05:40;99566.22;;;20.65;63.94
35655;BME280;21773;50.010;19.972;2023-05-20T10:09:00;99559.94;;;20.90;63.58
35655;BME280;21773;50.010;19.972;2023-05-20T10:12:22;99559.44;;;21.13;63.74
35655;BME280;21773;50.010;19.972;2023-05-20T10:15:35;99558.34;;;21.30;62.88
35655;BME280;21773;50.010;19.972;2023-05-20T10:18:52;99548.97;;;21.41;61.87
35655;BME280;21773;50.010;19.972;2023-05-20T10:21:59;99545.72;;;21.24;61.59
35655;BME280;21773;50.010;19.972;2023-05-20T10:25:06;99553.63;;;21.55;61.75
35655;BME280;21773;50.010;19.972;2023-05-20T10:28:09;99559.63;;;21.73;61.13
35655;BME280;21773;50.010;19.972;2023-05-20T10:31:17;99548.63;;;21.88;60.67
35655;BME280;21773;50.010;19.972;2023-05-20T10:34:22;99543.31;;;22.22;59.36
35655;BME280;21773;50.010;19.972;2023-05-20T10:37:28;99538.22;;;22.44;57.49
35655;BME280;21773;50.010;19.972;2023-05-20T10:40:34;99546.53;;;22.83;55.66
35655;BME280;21773;50.010;19.972;2023-05-20T10:43:38;99553.47;;;23.09;54.84
35655;BME280;21773;50.010;19.972;2023-05-20T10:46:41;99554.59;;;23.08;53.85
35655;BME280;21773;50.010;19.972;2023-05-20T10:49:49;99551.13;;;22.93;54.46
35655;BME280;21773;50.010;19.972;2023-05-20T10:52:52;99543.19;;;22.91;54.34
35655;BME280;21773;50.010;19.972;2023-05-20T10:55:57;99556.31;;;23.33;54.25
35655;BME280;21773;50.010;19.972;2023-05-20T10:59:00;99549.09;;;23.37;53.83
35655;BME280;21773;50.010;19.972;2023-05-20T11:02:04;99549.78;;;23.58;53.36
35655;BME280;21773;50.010;19.972;2023-05-20T11:05:10;99546.47;;;23.56;52.87
35655;BME280;21773;50.010;19.972;2023-05-20T11:08:14;99525.16;;;23.90;52.03
35655;BME280;21773;50.010;19.972;2023-05-20T11:11:30;99533.94;;;24.40;51.44
35655;BME280;21773;50.010;19.972;2023-05-20T11:14:34;99523.59;;;24.69;50.67
35655;BME280;21773;50.010;19.972;2023-05-20T11:17:37;99518.91;;;24.88;49.76
35655;BME280;21773;50.010;19.972;2023-05-20T11:20:41;99500.03;;;25.28;49.14
35655;BME280;21773;50.010;19.972;2023-05-20T11:23:44;99503.28;;;25.76;48.68
35655;BME280;21773;50.010;19.972;2023-05-20T11:26:49;99490.06;;;26.14;47.47
35655;BME280;21773;50.010;19.972;2023-05-20T11:29:53;99495.31;;;26.29;45.56
35655;BME280;21773;50.010;19.972;2023-05-20T11:32:58;99490.25;;;26.31;45.98
35655;BME280;21773;50.010;19.972;2023-05-20T11:36:02;99479.13;;;26.22;45.00
35655;BME280;21773;50.010;19.972;2023-05-20T11:39:12;99491.75;;;26.51;46.19
35655;BME280;21773;50.010;19.972;2023-05-20T11:42:18;99477.75;;;26.69;44.55
35655;BME280;21773;50.010;19.972;2023-05-20T11:45:22;99480.44;;;26.25;44.30
35655;BME280;21773;50.010;19.972;2023-05-20T11:48:25;99490.19;;;26.09;45.39
35655;BME280;21773;50.010;19.972;2023-05-20T11:51:29;99478.22;;;26.49;46.40
35655;BME280;21773;50.010;19.972;2023-05-20T11:54:34;99486.28;;;26.59;43.29
35655;BME280;21773;50.010;19.972;2023-05-20T11:57:39;99484.97;;;26.79;43.75
35655;BME280;21773;50.010;19.972;2023-05-20T12:00:42;99486.59;;;26.94;43.43
35655;BME280;21773;50.010;19.972;2023-05-20T12:03:55;99466.41;;;26.93;42.97
35655;BME280;21773;50.010;19.972;2023-05-20T12:06:59;99483.03;;;27.24;43.11
35655;BME280;21773;50.010;19.972;2023-05-20T12:10:03;99482.34;;;27.19;43.04
35655;BME280;21773;50.010;19.972;2023-05-20T12:13:08;99476.69;;;27.24;43.39
35655;BME280;21773;50.010;19.972;2023-05-20T12:16:12;99472.78;;;27.25;43.52
35655;BME280;21773;50.010;19.972;2023-05-20T12:19:15;99456.88;;;27.30;43.64
35655;BME280;21773;50.010;19.972;2023-05-20T12:22:19;99463.66;;;27.24;42.77
35655;BME280;21773;50.010;19.972;2023-05-20T12:25:22;99457.47;;;27.49;42.66
35655;BME280;21773;50.010;19.972;2023-05-20T12:28:27;99452.72;;;27.19;43.05
35655;BME280;21773;50.010;19.972;2023-05-20T12:31:30;99447.66;;;26.90;44.07
35655;BME280;21773;50.010;19.972;2023-05-20T12:34:35;99430.97;;;26.82;44.27
35655;BME280;21773;50.010;19.972;2023-05-20T12:37:40;99430.41;;;26.93;44.51
35655;BME280;21773;50.010;19.972;2023-05-20T12:40:44;99430.63;;;26.97;44.09
35655;BME280;21773;50.010;19.972;2023-05-20T12:43:49;99412.00;;;26.89;44.42
35655;BME280;21773;50.010;19.972;2023-05-20T12:46:53;99422.75;;;26.68;45.24
35655;BME280;21773;50.010;19.972;2023-05-20T12:49:57;99419.72;;;26.56;44.79
35655;BME280;21773;50.010;19.972;2023-05-20T12:53:00;99422.03;;;26.40;46.37
35655;BME280;21773;50.010;19.972;2023-05-20T12:56:04;99397.53;;;26.69;47.03
35655;BME280;21773;50.010;19.972;2023-05-20T12:59:10;99400.13;;;26.88;45.81
35655;BME280;21773;50.010;19.972;2023-05-20T13:02:13;99404.38;;;27.17;45.38
35655;BME280;21773;50.010;19.972;2023-05-20T13:05:17;99390.03;;;27.23;43.80
35655;BME280;21773;50.010;19.972;2023-05-20T13:08:20;99392.69;;;27.37;43.95
35655;BME280;21773;50.010;19.972;2023-05-20T13:11:24;99390.53;;;27.56;44.58
35655;BME280;21773;50.010;19.972;2023-05-20T13:14:29;99392.50;;;27.64;43.91
35655;BME280;21773;50.010;19.972;2023-05-20T13:17:32;99388.25;;;27.67;43.24
35655;BME280;21773;50.010;19.972;2023-05-20T13:20:36;99382.94;;;27.79;43.01
35655;BME280;21773;50.010;19.972;2023-05-20T13:23:40;99377.81;;;27.55;43.07
35655;BME280;21773;50.010;19.972;2023-05-20T13:26:47;99378.13;;;27.53;44.40
35655;BME280;21773;50.010;19.972;2023-05-20T13:29:53;99370.34;;;27.55;45.01
35655;BME280;21773;50.010;19.972;2023-05-20T13:32:56;99364.97;;;27.76;44.86
35655;BME280;21773;50.010;19.972;2023-05-20T13:36:00;99364.19;;;28.01;44.79
35655;BME280;21773;50.010;19.972;2023-05-20T13:39:03;99371.59;;;28.23;44.88
35655;BME280;21773;50.010;19.972;2023-05-20T13:42:07;99361.97;;;28.29;44.68
35655;BME280;21773;50.010;19.972;2023-05-20T13:45:12;99371.03;;;27.95;43.12
35655;BME280;21773;50.010;19.972;2023-05-20T13:48:15;99351.66;;;27.39;43.96
35655;BME280;21773;50.010;19.972;2023-05-20T13:51:19;99356.59;;;27.02;45.09
35655;BME280;21773;50.010;19.972;2023-05-20T13:54:23;99349.56;;;27.36;46.14
35655;BME280;21773;50.010;19.972;2023-05-20T13:57:27;99345.94;;;27.27;46.03
35655;BME280;21773;50.010;19.972;2023-05-20T14:00:31;99346.69;;;27.58;46.09
35655;BME280;21773;50.010;19.972;2023-05-20T14:03:35;99334.81;;;27.66;45.91
35655;BME280;21773;50.010;19.972;2023-05-20T14:06:40;99342.13;;;27.53;45.44
35655;BME280;21773;50.010;19.972;2023-05-20T14:09:44;99335.00;;;27.70;45.41
35655;BME280;21773;50.010;19.972;2023-05-20T14:12:47;99328.50;;;27.74;45.30
35655;BME280;21773;50.010;19.972;2023-05-20T14:15:52;99328.50;;;27.91;45.50
35655;BME280;21773;50.010;19.972;2023-05-20T14:18:56;99324.53;;;27.58;45.33
35655;BME280;21773;50.010;19.972;2023-05-20T14:21:59;99323.41;;;27.76;45.26
35655;BME280;21773;50.010;19.972;2023-05-20T14:25:05;99314.63;;;27.74;45.59
35655;BME280;21773;50.010;19.972;2023-05-20T14:28:08;99314.28;;;27.58;45.58
35655;BME280;21773;50.010;19.972;2023-05-20T14:31:13;99306.47;;;27.61;46.10
35655;BME280;21773;50.010;19.972;2023-05-20T14:34:16;99312.69;;;27.75;45.42
35655;BME280;21773;50.010;19.972;2023-05-20T14:37:20;99303.19;;;27.50;43.90
35655;BME280;21773;50.010;19.972;2023-05-20T14:40:24;99322.63;;;27.76;43.81
35655;BME280;21773;50.010;19.972;2023-05-20T14:43:27;99313.16;;;27.77;42.82
35655;BME280;21773;50.010;19.972;2023-05-20T14:46:34;99337.97;;;27.90;42.84
35655;BME280;21773;50.010;19.972;2023-05-20T14:49:37;99330.28;;;27.70;42.16
35655;BME280;21773;50.010;19.972;2023-05-20T14:52:42;99328.94;;;27.59;42.53
35655;BME280;21773;50.010;19.972;2023-05-20T14:55:49;99321.06;;;27.44;41.78
35655;BME280;21773;50.010;19.972;2023-05-20T14:58:53;99330.78;;;27.33;42.00
35655;BME280;21773;50.010;19.972;2023-05-20T15:01:58;99319.53;;;27.21;41.68
35655;BME280;21773;50.010;19.972;2023-05-20T15:05:01;99319.25;;;27.39;42.74
35655;BME280;21773;50.010;19.972;2023-05-20T15:08:05;99324.78;;;27.31;41.25
35655;BME280;21773;50.010;19.972;2023-05-20T15:11:08;99315.38;;;27.40;42.35
35655;BME280;21773;50.010;19.972;2023-05-20T15:14:12;99315.50;;;27.35;42.26
35655;BME280;21773;50.010;19.972;2023-05-20T15:17:16;99310.28;;;27.25;41.66
35655;BME280;21773;50.010;19.972;2023-05-20T15:20:21;99305.88;;;27.33;42.41
35655;BME280;21773;50.010;19.972;2023-05-20T15:23:24;99315.28;;;27.23;41.10
35655;BME280;21773;50.010;19.972;2023-05-20T15:26:29;99303.38;;;27.14;41.59
35655;BME280;21773;50.010;19.972;2023-05-20T15:29:33;99287.69;;;26.92;41.17
35655;BME280;21773;50.010;19.972;2023-05-20T15:32:37;99286.00;;;26.83;41.45
35655;BME280;21773;50.010;19.972;2023-05-20T15:35:42;99289.34;;;26.71;42.33
35655;BME280;21773;50.010;19.972;2023-05-20T15:38:45;99290.25;;;26.89;42.69
35655;BME280;21773;50.010;19.972;2023-05-20T15:41:49;99286.31;;;26.81;41.28
35655;BME280;21773;50.010;19.972;2023-05-20T15:44:53;99273.38;;;26.99;42.82
35655;BME280;21773;50.010;19.972;2023-05-20T15:47:58;99259.41;;;27.12;42.92
35655;BME280;21773;50.010;19.972;2023-05-20T15:51:03;99254.41;;;27.23;42.82
35655;BME280;21773;50.010;19.972;2023-05-20T15:54:06;99267.56;;;27.17;42.79
35655;BME280;21773;50.010;19.972;2023-05-20T15:57:10;99266.44;;;27.19;43.08
35655;BME280;21773;50.010;19.972;2023-05-20T16:00:14;99268.34;;;27.01;43.22
35655;BME280;21773;50.010;19.972;2023-05-20T16:03:21;99271.81;;;27.15;43.66
35655;BME280;21773;50.010;19.972;2023-05-20T16:06:24;99275.97;;;26.95;43.17